Time;durP1;ratioP1;P1;durP2;ratioP2;P2;SDS_P1;SDS_P2;PMS_P1;PMS_P2;Temp;Humidity;BMP_temperature;BMP_pressure;BME280_temperature;BME280_humidity;BME280_pressure;Samples;Min_cycle;Max_cycle;Signal;HPM_P1;HPM_P2
2021/08/18 00:00:07;;;;;;;17.10;10.53;;;13.00;99.90;;;;;;6216730;23;20449;-88
2021/08/18 00:02:35;;;;;;;16.57;9.50;;;;;;;;;;6209636;23;20427;-88
2021/08/18 00:05:02;;;;;;;14.10;9.00;;;;;;;;;;6216477;23;20402;-88
2021/08/18 00:07:29;;;;;;;18.07;9.87;;;;;;;;;;6216554;23;20395;-87
2021/08/18 00:09:57;;;;;;;19.27;11.00;;;;;;;;;;6214668;23;20509;-89
2021/08/18 00:12:24;;;;;;;19.60;10.80;;;;;;;;;;6216298;23;20467;-88
2021/08/18 00:14:52;;;;;;;16.87;10.10;;;13.20;99.90;;;;;;6215888;23;20391;-87
2021/08/18 00:17:19;;;;;;;25.20;10.07;;;;;;;;;;6216500;23;20398;-89
2021/08/18 00:19:47;;;;;;;17.43;9.70;;;;;;;;;;6216427;23;20400;-90
2021/08/18 00:22:14;;;;;;;15.97;9.70;;;;;;;;;;6215939;23;20927;-88
2021/08/18 00:24:41;;;;;;;18.40;10.73;;;;;;;;;;6214344;23;20404;-88
2021/08/18 00:27:08;;;;;;;15.60;9.87;;;;;;;;;;6216259;23;20407;-89
2021/08/18 00:29:35;;;;;;;14.57;8.90;;;;;;;;;;6216369;23;20395;-89
2021/08/18 00:32:05;;;;;;;16.30;9.93;;;13.10;99.90;;;;;;6216016;23;20874;-87
2021/08/18 00:34:32;;;;;;;17.83;10.83;;;;;;;;;;6211342;23;20395;-87
2021/08/18 00:36:59;;;;;;;18.60;10.30;;;;;;;;;;6216351;23;20868;-89
2021/08/18 00:39:26;;;;;;;18.73;10.40;;;;;;;;;;6214599;23;20391;-89
2021/08/18 00:41:53;;;;;;;19.40;10.70;;;;;;;;;;6216338;23;20396;-88
2021/08/18 00:44:20;;;;;;;15.90;10.17;;;;;;;;;;6215715;23;20442;-87
2021/08/18 00:46:52;;;;;;;19.50;11.27;;;13.10;99.90;;;;;;6215959;23;20430;-87
2021/08/18 00:49:22;;;;;;;18.47;10.70;;;13.10;99.90;;;;;;6215772;23;20396;-87
2021/08/18 00:51:50;;;;;;;15.10;9.90;;;13.10;99.90;;;;;;6215673;23;20890;-88
2021/08/18 00:54:17;;;;;;;16.53;10.50;;;;;;;;;;6214519;23;20396;-88
2021/08/18 00:56:44;;;;;;;19.90;11.63;;;13.20;99.90;;;;;;6215573;23;20407;-88
2021/08/18 00:59:11;;;;;;;17.57;10.90;;;;;;;;;;6209698;23;20403;-90
2021/08/18 01:01:39;;;;;;;16.40;9.77;;;;;;;;;;6211249;23;20415;-88
2021/08/18 01:04:06;;;;;;;14.10;10.30;;;;;;;;;;6211577;23;20660;-89
2021/08/18 01:06:39;;;;;;;20.20;11.20;;;13.20;99.90;;;;;;6215760;23;20392;-88
2021/08/18 01:09:06;;;;;;;18.30;10.77;;;;;;;;;;6209779;23;20415;-89
2021/08/18 01:11:35;;;;;;;19.30;11.10;;;13.20;99.90;;;;;;6215546;23;20923;-89
2021/08/18 01:14:03;;;;;;;21.10;10.77;;;13.10;99.90;;;;;;6210057;23;20396;-89
2021/08/18 01:16:30;;;;;;;15.97;11.07;;;;;;;;;;6216076;23;20400;-90
2021/08/18 01:18:58;;;;;;;19.43;12.33;;;13.20;99.90;;;;;;6216015;23;20387;-88
2021/08/18 01:21:25;;;;;;;21.30;11.77;;;;;;;;;;6215734;23;20903;-91
2021/08/18 01:23:54;;;;;;;18.23;11.20;;;13.10;99.90;;;;;;6214399;23;20741;-90
2021/08/18 01:26:21;;;;;;;17.90;11.73;;;;;;;;;;6215996;23;20521;-89
2021/08/18 01:28:50;;;;;;;18.67;11.70;;;13.20;99.90;;;;;;6215906;23;20392;-89
2021/08/18 01:31:17;;;;;;;15.80;10.83;;;;;;;;;;6215739;23;20949;-88
2021/08/18 01:33:45;;;;;;;22.37;11.37;;;;;;;;;;6215487;23;20474;-89
2021/08/18 01:36:12;;;;;;;19.13;10.43;;;13.20;99.90;;;;;;6215749;23;20396;-88
2021/08/18 01:38:39;;;;;;;18.90;11.37;;;;;;;;;;6209409;23;20400;-89
2021/08/18 01:41:06;;;;;;;20.67;11.50;;;;;;;;;;6215508;23;20406;-87
2021/08/18 01:43:33;;;;;;;18.93;10.80;;;;;;;;;;6210954;23;20782;-89
2021/08/18 01:46:02;;;;;;;18.80;12.03;;;13.20;99.90;;;;;;6215217;23;20939;-90
2021/08/18 01:48:29;;;;;;;18.53;11.03;;;;;;;;;;6215368;23;20883;-88
2021/08/18 01:50:57;;;;;;;18.93;11.10;;;13.20;99.90;;;;;;6215647;23;20426;-89
2021/08/18 01:53:26;;;;;;;17.40;11.97;;;13.20;99.90;;;;;;6215481;23;20876;-89
2021/08/18 01:55:53;;;;;;;20.40;11.90;;;;;;;;;;6214258;23;20383;-89
2021/08/18 01:58:21;;;;;;;22.30;12.13;;;;;;;;;;6215672;23;20392;-88
2021/08/18 02:00:48;;;;;;;20.27;11.87;;;;;;;;;;6215728;23;20438;-87
2021/08/18 02:03:17;;;;;;;21.90;12.40;;;;;;;;;;6215490;23;20443;-89
2021/08/18 02:05:44;;;;;;;23.10;11.97;;;;;;;;;;6215707;23;20398;-89
2021/08/18 02:08:11;;;;;;;17.60;10.93;;;;;;;;;;6209420;23;20392;-89
2021/08/18 02:10:38;;;;;;;19.23;12.07;;;;;;;;;;6213442;23;20447;-89
2021/08/18 02:13:05;;;;;;;19.70;11.83;;;;;;;;;;6211041;23;20399;-88
2021/08/18 02:15:35;;;;;;;19.37;10.60;;;13.10;99.90;;;;;;6215677;23;20399;-88
2021/08/18 02:18:05;;;;;;;22.50;10.57;;;13.10;99.90;;;;;;6210953;23;20453;-87
2021/08/18 02:20:34;;;;;;;16.33;10.73;;;13.10;99.90;;;;;;6215334;23;20713;-88
2021/08/18 02:23:02;;;;;;;17.83;10.83;;;13.10;99.90;;;;;;6215123;23;20427;-89
2021/08/18 02:25:29;;;;;;;21.83;12.17;;;;;;;;;;6207327;23;20695;-88
2021/08/18 02:27:56;;;;;;;21.40;11.77;;;;;;;;;;6215274;23;20857;-87
2021/08/18 02:30:27;;;;;;;18.27;11.30;;;13.10;99.90;;;;;;6210759;23;20765;-93
2021/08/18 02:32:54;;;;;;;18.80;11.10;;;;;;;;;;6210634;23;20419;-88
2021/08/18 02:35:22;;;;;;;17.23;10.53;;;13.10;99.90;;;;;;6215798;23;20391;-89
2021/08/18 02:37:54;;;;;;;17.83;11.60;;;13.00;99.90;;;;;;6215596;23;20409;-88
2021/08/18 02:40:21;;;;;;;21.33;13.00;;;;;;;;;;6213526;23;20387;-87
2021/08/18 02:42:49;;;;;;;21.20;12.20;;;13.00;99.90;;;;;;6215576;23;20398;-87
2021/08/18 02:45:16;;;;;;;19.97;10.60;;;;;;;;;;6215349;23;20428;-88
2021/08/18 02:47:44;;;;;;;21.40;13.30;;;;;;;;;;6215233;23;20406;-87
2021/08/18 02:50:13;;;;;;;21.70;12.30;;;13.00;99.90;;;;;;6215257;23;20399;-88
2021/08/18 02:52:40;;;;;;;21.23;12.10;;;;;;;;;;6215253;23;20392;-88
2021/08/18 02:55:10;;;;;;;23.77;12.93;;;13.20;99.90;;;;;;6213726;23;20395;-88
2021/08/18 02:57:38;;;;;;;17.47;10.90;;;;;;;;;;6214721;23;20414;-88
2021/08/18 03:00:06;;;;;;;16.57;9.10;;;13.10;99.90;;;;;;6214897;23;20395;-89
2021/08/18 03:02:33;;;;;;;24.00;12.00;;;;;;;;;;6216483;23;20739;-88
2021/08/18 03:05:00;;;;;;;16.20;11.20;;;;;;;;;;6217235;23;20442;-88
2021/08/18 03:07:27;;;;;;;20.70;12.43;;;;;;;;;;6216634;23;20415;-86
2021/08/18 03:09:54;;;;;;;18.80;11.27;;;;;;;;;;6215848;23;20446;-89
2021/08/18 03:12:23;;;;;;;18.10;11.17;;;;;;;;;;6218311;23;20395;-89
2021/08/18 03:14:50;;;;;;;21.20;12.13;;;;;;;;;;6219094;23;20410;-88
2021/08/18 03:17:17;;;;;;;16.80;11.57;;;;;;;;;;6219894;23;20402;-89
2021/08/18 03:19:44;;;;;;;18.80;10.87;;;;;;;;;;6217653;23;20900;-87
2021/08/18 03:22:12;;;;;;;17.93;10.37;;;;;;;;;;6219033;23;20398;-87
2021/08/18 03:24:39;;;;;;;21.80;9.80;;;;;;;;;;6215839;23;20446;-89
2021/08/18 03:27:06;;;;;;;16.37;9.70;;;;;;;;;;6216862;23;20392;-88
2021/08/18 03:29:34;;;;;;;16.77;11.33;;;12.90;99.90;;;;;;6216776;23;20400;-87
2021/08/18 03:32:01;;;;;;;13.00;9.00;;;;;;;;;;6216863;23;20428;-89
2021/08/18 03:34:28;;;;;;;13.50;8.93;;;;;;;;;;6216730;23;20457;-88
2021/08/18 03:36:55;;;;;;;16.80;9.70;;;;;;;;;;6216962;23;20422;-88
2021/08/18 03:39:22;;;;;;;15.13;9.40;;;;;;;;;;6215275;23;20391;-88
2021/08/18 03:41:49;;;;;;;13.70;9.20;;;;;;;;;;6216863;23;20898;-87
2021/08/18 03:44:17;;;;;;;15.97;9.30;;;;;;;;;;6216686;23;20461;-88
2021/08/18 03:46:45;;;;;;;16.13;9.93;;;;;;;;;;6216492;23;20392;-87
2021/08/18 03:49:12;;;;;;;16.37;10.43;;;;;;;;;;6216540;23;20406;-88
2021/08/18 03:51:39;;;;;;;16.67;9.23;;;;;;;;;;6216671;23;20399;-88
2021/08/18 03:54:07;;;;;;;14.30;9.50;;;;;;;;;;6215078;23;20396;-87
2021/08/18 03:56:34;;;;;;;14.30;9.50;;;;;;;;;;6216385;23;20403;-88
2021/08/18 03:59:01;;;;;;;16.83;9.57;;;;;;;;;;6216568;23;20395;-87
2021/08/18 04:01:28;;;;;;;11.10;8.17;;;;;;;;;;6216453;23;20403;-86
2021/08/18 04:03:56;;;;;;;14.03;9.50;;;13.00;99.90;;;;;;6212089;23;20438;-88
2021/08/18 04:06:24;;;;;;;11.57;7.90;;;;;;;;;;6216247;23;20914;-88
2021/08/18 04:08:51;;;;;;;13.40;9.43;;;;;;;;;;6209966;23;20713;-88
2021/08/18 04:11:18;;;;;;;13.13;8.80;;;;;;;;;;6211465;23;20443;-88
2021/08/18 04:13:45;;;;;;;13.30;8.43;;;;;;;;;;6216024;23;20404;-87
2021/08/18 04:16:12;;;;;;;14.30;8.20;;;;;;;;;;6216311;23;20403;-87
2021/08/18 04:18:39;;;;;;;13.53;8.50;;;;;;;;;;6216496;23;20398;-87
2021/08/18 04:21:07;;;;;;;14.23;8.60;;;12.90;99.90;;;;;;6216741;23;20415;-88
2021/08/18 04:23:35;;;;;;;11.90;7.70;;;;;;;;;;6215873;23;20426;-88
2021/08/18 04:26:02;;;;;;;11.47;7.70;;;;;;;;;;6215219;23;20405;-86
2021/08/18 04:28:29;;;;;;;10.00;5.80;;;;;;;;;;6215943;23;20399;-88
2021/08/18 04:30:56;;;;;;;11.40;6.40;;;;;;;;;;6216221;23;20718;-87
2021/08/18 04:33:23;;;;;;;9.20;6.10;;;;;;;;;;6211412;23;20415;-87
2021/08/18 04:35:50;;;;;;;8.60;5.90;;;;;;;;;;6216293;23;20395;-88
2021/08/18 04:38:18;;;;;;;14.10;7.73;;;12.90;99.90;;;;;;6216349;23;20402;-88
2021/08/18 04:40:45;;;;;;;11.30;6.53;;;;;;;;;;6214706;23;20415;-88
2021/08/18 04:43:13;;;;;;;15.33;6.50;;;;;;;;;;6215556;23;20419;-88
2021/08/18 04:45:40;;;;;;;12.80;6.90;;;;;;;;;;6215794;23;20487;-87
2021/08/18 04:48:08;;;;;;;12.00;6.30;;;;;;;;;;6216254;23;20410;-88
2021/08/18 04:50:35;;;;;;;12.13;6.90;;;;;;;;;;6211577;23;20748;-87
2021/08/18 04:53:07;;;;;;;8.30;5.27;;;13.00;99.90;;;;;;6216752;23;20396;-87
2021/08/18 04:55:35;;;;;;;12.13;6.50;;;13.00;99.90;;;;;;6215228;23;20399;-87
2021/08/18 04:58:02;;;;;;;10.30;6.30;;;;;;;;;;6216363;23;20400;-88
2021/08/18 05:00:29;;;;;;;9.40;5.50;;;;;;;;;;6216269;23;20406;-87
2021/08/18 05:02:56;;;;;;;14.43;6.97;;;;;;;;;;6211817;23;20403;-88
2021/08/18 05:05:23;;;;;;;12.13;6.07;;;;;;;;;;6215924;23;20740;-88
2021/08/18 05:07:51;;;;;;;9.27;6.40;;;;;;;;;;6216147;23;20395;-87
2021/08/18 05:10:19;;;;;;;7.97;5.80;;;;;;;;;;6214324;23;20453;-87
2021/08/18 05:12:47;;;;;;;9.53;6.40;;;13.00;99.90;;;;;;6211452;23;20395;-87
2021/08/18 05:15:14;;;;;;;7.07;4.67;;;;;;;;;;6216456;23;20418;-87
2021/08/18 05:17:44;;;;;;;7.77;5.50;;;;;;;;;;6216343;23;20388;-87
2021/08/18 05:20:11;;;;;;;8.40;6.30;;;13.10;99.90;;;;;;6215662;23;20387;-87
2021/08/18 05:22:39;;;;;;;9.37;5.63;;;;;;;;;;6216222;23;20411;-89
2021/08/18 05:25:07;;;;;;;10.97;6.57;;;;;;;;;;6215631;23;20446;-88
2021/08/18 05:27:34;;;;;;;9.83;7.00;;;;;;;;;;6216957;23;20442;-87
2021/08/18 05:30:02;;;;;;;7.20;4.93;;;13.20;99.90;;;;;;6218213;23;20392;-86
2021/08/18 05:32:29;;;;;;;11.47;6.00;;;;;;;;;;6211742;23;20529;-88
2021/08/18 05:34:57;;;;;;;7.73;5.80;;;;;;;;;;6217248;23;20387;-88
2021/08/18 05:37:25;;;;;;;7.97;5.47;;;;;;;;;;6218679;23;20387;-87
2021/08/18 05:39:52;;;;;;;7.97;5.17;;;;;;;;;;6217032;23;20392;-88
2021/08/18 05:42:19;;;;;;;8.93;5.60;;;;;;;;;;6218290;23;20396;-88
2021/08/18 05:44:46;;;;;;;6.43;5.10;;;;;;;;;;6216166;23;20446;-88
2021/08/18 05:47:14;;;;;;;8.37;6.03;;;13.30;99.90;;;;;;6211477;23;20458;-89
2021/08/18 05:49:42;;;;;;;7.93;5.23;;;;;;;;;;6216927;23;20399;-89
2021/08/18 05:52:09;;;;;;;9.77;5.70;;;;;;;;;;6216679;23;20485;-86
2021/08/18 05:54:38;;;;;;;8.00;5.40;;;;;;;;;;6216327;23;20398;-88
2021/08/18 05:57:05;;;;;;;7.53;5.70;;;;;;;;;;6218874;23;20396;-88
2021/08/18 05:59:32;;;;;;;6.80;5.07;;;;;;;;;;6216372;23;20395;-88
2021/08/18 06:02:00;;;;;;;9.50;5.67;;;;;;;;;;6211284;23;20919;-88
2021/08/18 06:04:31;;;;;;;9.80;5.37;;;13.60;99.90;;;;;;6219821;23;20526;-87
2021/08/18 06:06:58;;;;;;;7.43;4.77;;;;;;;;;;6215930;23;20453;-88
2021/08/18 06:09:25;;;;;;;7.30;5.20;;;;;;;;;;6214756;23;20400;-88
2021/08/18 06:11:52;;;;;;;9.47;6.00;;;;;;;;;;6216256;23;20482;-87
2021/08/18 06:14:19;;;;;;;6.87;5.20;;;;;;;;;;6215463;23;20880;-89
2021/08/18 06:16:46;;;;;;;6.40;4.63;;;;;;;;;;6216093;23;20403;-88
2021/08/18 06:19:13;;;;;;;6.30;4.80;;;;;;;;;;6208300;23;20398;-88
2021/08/18 06:21:41;;;;;;;8.37;5.60;;;13.80;99.90;;;;;;6215343;23;20723;-88
2021/08/18 06:24:15;;;;;;;7.33;4.90;;;;;;;;;;6214255;23;20438;-88
2021/08/18 06:26:43;;;;;;;7.40;5.00;;;;;;;;;;6215789;23;20406;-89
2021/08/18 06:29:10;;;;;;;7.27;5.40;;;;;;;;;;6215557;23;20400;-87
2021/08/18 06:31:37;;;;;;;5.90;4.40;;;;;;;;;;6215422;23;20403;-89
2021/08/18 06:34:04;;;;;;;7.73;5.07;;;;;;;;;;6215615;23;20730;-87
2021/08/18 06:36:31;;;;;;;6.70;4.70;;;;;;;;;;6211504;23;20395;-88
2021/08/18 06:38:59;;;;;;;10.20;5.30;;;;;;;;;;6215854;23;20400;-89
2021/08/18 06:41:27;;;;;;;7.97;5.53;;;;;;;;;;6217715;23;20399;-87
2021/08/18 06:43:54;;;;;;;5.90;4.53;;;;;;;;;;6212371;23;20442;-88
2021/08/18 06:46:21;;;;;;;7.30;4.63;;;;;;;;;;6217600;23;20711;-89
2021/08/18 06:48:48;;;;;;;8.87;5.20;;;;;;;;;;6217539;23;20406;-88
2021/08/18 06:51:15;;;;;;;5.60;4.60;;;;;;;;;;6217715;23;20456;-88
2021/08/18 06:53:43;;;;;;;4.30;3.53;;;;;;;;;;6216222;23;20406;-87
2021/08/18 06:56:12;;;;;;;5.77;4.70;;;14.90;99.90;;;;;;6218076;23;20403;-88
2021/08/18 06:58:39;;;;;;;7.40;3.93;;;;;;;;;;6220169;23;20387;-89
2021/08/18 07:01:06;;;;;;;4.90;3.67;;;;;;;;;;6245058;23;20462;-88
2021/08/18 07:03:33;;;;;;;5.40;4.30;;;;;;;;;;6236364;23;20403;-88
2021/08/18 07:06:01;;;;;;;6.00;4.60;;;;;;;;;;6217642;23;20447;-88
2021/08/18 07:08:28;;;;;;;4.30;3.00;;;;;;;;;;6216946;23;20388;-87
2021/08/18 07:10:55;;;;;;;4.13;2.80;;;;;;;;;;6210869;23;20439;-91
2021/08/18 07:13:24;;;;;;;3.43;2.30;;;;;;;;;;6216912;23;20910;-89
2021/08/18 07:15:51;;;;;;;6.53;3.30;;;;;;;;;;6217121;23;20394;-87
2021/08/18 07:18:18;;;;;;;5.43;3.53;;;;;;;;;;6216979;23;20400;-91
2021/08/18 07:20:46;;;;;;;6.67;4.30;;;;;;;;;;6216984;23;20737;-89
2021/08/18 07:23:13;;;;;;;4.83;3.77;;;;;;;;;;6217089;23;20396;-89
2021/08/18 07:25:40;;;;;;;7.33;4.20;;;;;;;;;;6215317;23;20446;-90
2021/08/18 07:28:07;;;;;;;4.90;3.73;;;;;;;;;;6216776;23;20928;-89
2021/08/18 07:30:35;;;;;;;4.63;3.60;;;15.90;99.90;;;;;;6217171;23;20391;-90
2021/08/18 07:33:02;;;;;;;7.53;4.10;;;;;;;;;;6217159;23;20407;-88
2021/08/18 07:35:30;;;;;;;5.80;3.30;;;;;;;;;;6216768;23;20396;-89
2021/08/18 07:37:57;;;;;;;4.40;3.47;;;;;;;;;;6216935;23;20403;-86
2021/08/18 07:40:25;;;;;;;4.93;3.57;;;;;;;;;;6215235;23;20395;-90
2021/08/18 07:42:52;;;;;;;3.73;3.43;;;;;;;;;;6207094;23;20809;-88
2021/08/18 07:45:20;;;;;;;4.47;3.23;;;;;;;;;;6216538;23;20470;-88
2021/08/18 07:47:48;;;;;;;4.30;3.10;;;16.10;99.90;;;;;;6216633;23;20407;-88
2021/08/18 07:50:15;;;;;;;4.07;2.80;;;;;;;;;;6216848;23;20502;-89
2021/08/18 07:52:42;;;;;;;5.13;3.17;;;;;;;;;;6216961;23;20408;-87
2021/08/18 07:55:10;;;;;;;7.73;3.93;;;16.70;99.90;;;;;;6215276;23;20388;-88
2021/08/18 07:57:37;;;;;;;5.63;3.27;;;;;;;;;;6208125;23;20726;-88
2021/08/18 08:00:06;;;;;;;4.50;3.53;;;16.10;99.90;;;;;;6210553;23;20724;-87
2021/08/18 08:02:33;;;;;;;6.73;4.00;;;;;;;;;;6216736;23;20414;-88
2021/08/18 08:05:05;;;;;;;4.77;3.27;;;15.90;99.90;;;;;;6216407;23;20435;-88
2021/08/18 08:07:33;;;;;;;4.30;3.03;;;;;;;;;;6216944;23;20402;-88
2021/08/18 08:10:00;;;;;;;4.33;2.77;;;;;;;;;;6214473;23;20439;-88
2021/08/18 08:12:27;;;;;;;3.37;2.97;;;;;;;;;;6216757;23;20709;-87
2021/08/18 08:14:54;;;;;;;3.20;2.03;;;;;;;;;;6216817;23;20408;-87
2021/08/18 08:17:21;;;;;;;3.80;1.80;;;;;;;;;;6216824;23;20400;-88
2021/08/18 08:19:48;;;;;;;2.10;1.80;;;16.30;99.90;;;;;;6216839;23;20396;-88
2021/08/18 08:22:17;;;;;;;5.33;1.60;;;16.50;99.90;;;;;;6216960;23;20531;-87
2021/08/18 08:24:44;;;;;;;1.83;1.60;;;;;;;;;;6215059;23;20427;-87
2021/08/18 08:27:11;;;;;;;3.17;2.20;;;;;;;;;;6211719;23;20446;-88
2021/08/18 08:29:38;;;;;;;1.60;1.50;;;;;;;;;;6211746;23;20469;-87
2021/08/18 08:32:06;;;;;;;1.67;1.57;;;;;;;;;;6216761;23;20396;-87
2021/08/18 08:34:33;;;;;;;2.10;1.50;;;;;;;;;;6216550;23;20407;-87
2021/08/18 08:37:00;;;;;;;1.83;1.27;;;;;;;;;;6216225;23;20396;-87
2021/08/18 08:39:28;;;;;;;1.20;0.83;;;16.80;99.90;;;;;;6215016;23;20396;-88
2021/08/18 08:41:56;;;;;;;1.40;0.97;;;;;;;;;;6216334;23;20419;-88
2021/08/18 08:44:25;;;;;;;1.17;0.90;;;17.10;99.90;;;;;;6211366;23;20398;-88
2021/08/18 08:46:53;;;;;;;1.63;1.00;;;17.20;99.90;;;;;;6210603;23;20452;-86
2021/08/18 08:49:22;;;;;;;0.70;0.60;;;17.00;99.90;;;;;;6216296;23;20403;-86
2021/08/18 08:51:52;;;;;;;0.90;0.70;;;17.00;99.90;;;;;;6216126;23;20448;-87
2021/08/18 08:54:19;;;;;;;0.87;0.73;;;;;;;;;;6214982;23;20459;-88
2021/08/18 08:56:48;;;;;;;0.70;0.70;;;16.90;99.90;;;;;;6216363;23;20422;-87
2021/08/18 08:59:15;;;;;;;0.63;0.50;;;;;;;;;;6216071;23;20486;-88
2021/08/18 09:02:03;;;;;;;0.70;0.50;;;17.00;99.90;;;;;;6216169;23;20392;-87
2021/08/18 09:04:31;;;;;;;0.70;0.57;;;16.90;99.90;;;;;;6215707;23;20405;-88
2021/08/18 09:07:05;;;;;;;1.37;0.50;;;16.70;99.90;;;;;;6216074;23;20440;-87
2021/08/18 09:09:32;;;;;;;1.37;0.70;;;;;;;;;;6214959;23;20391;-87
2021/08/18 09:12:05;;;;;;;0.77;0.60;;;16.60;99.90;;;;;;6216162;23;20863;-87
2021/08/18 09:14:32;;;;;;;0.70;0.50;;;;;;;;;;6215891;23;20395;-88
2021/08/18 09:16:59;;;;;;;1.00;0.70;;;;;;;;;;6211283;23;20391;-87
2021/08/18 09:19:31;;;;;;;1.13;0.90;;;16.30;99.90;;;;;;6215906;23;20719;-88
2021/08/18 09:22:06;;;;;;;1.00;0.83;;;16.40;99.90;;;;;;6210903;23;20411;-87
2021/08/18 09:24:34;;;;;;;2.77;0.60;;;;;;;;;;6214657;23;20401;-87
2021/08/18 09:27:08;;;;;;;0.80;0.60;;;16.40;99.90;;;;;;6215862;23;20442;-87
2021/08/18 09:29:41;;;;;;;1.20;0.80;;;16.30;99.90;;;;;;6215575;23;20407;-88
2021/08/18 09:32:24;;;;;;;1.00;0.67;;;16.30;99.90;;;;;;6215953;23;20477;-87
2021/08/18 09:34:53;;;;;;;0.97;0.60;;;16.30;99.90;;;;;;6215890;23;20395;-87
2021/08/18 09:37:20;;;;;;;0.53;0.50;;;;;;;;;;6215597;23;20399;-88
2021/08/18 09:39:48;;;;;;;0.70;0.50;;;;;;;;;;6214246;23;20396;-87
2021/08/18 09:42:30;;;;;;;0.80;0.60;;;16.90;99.90;;;;;;6215741;23;20431;-87
2021/08/18 09:45:14;;;;;;;0.97;0.43;;;17.30;99.90;;;;;;6227439;23;20410;-87
2021/08/18 09:48:05;;;;;;;3.90;0.70;;;17.50;99.90;;;;;;6243637;23;20395;-88
2021/08/18 09:50:41;;;;;;;0.80;0.50;;;17.30;99.90;;;;;;6209983;23;20458;-88
2021/08/18 09:53:11;;;;;;;0.93;0.40;;;17.60;99.90;;;;;;6215705;23;20411;-88
2021/08/18 09:55:38;;;;;;;0.93;0.50;;;17.60;99.90;;;;;;6214218;23;20399;-88
2021/08/18 09:58:20;;;;;;;0.40;0.30;;;18.10;99.90;;;;;;6209662;23;20395;-87
2021/08/18 10:00:47;;;;;;;0.60;0.60;;;;;;;;;;6215680;23;20400;-88
2021/08/18 10:03:14;;;;;;;2.10;0.73;;;;;;;;;;6215595;23;20403;-88
2021/08/18 10:05:42;;;;;;;0.90;0.50;;;;;;;;;;6215834;23;20436;-87
2021/08/18 10:08:09;;;;;;;0.60;0.60;;;;;;;;;;6211220;23;20400;-88
2021/08/18 10:10:40;;;;;;;0.70;0.63;;;16.70;99.90;;;;;;6213575;23;20434;-87
2021/08/18 10:13:10;;;;;;;1.00;0.90;;;19.50;99.90;;;;;;6215592;23;20400;-88
2021/08/18 10:15:38;;;;;;;0.77;0.70;;;19.90;99.90;;;;;;6215708;23;20391;-88
2021/08/18 10:18:05;;;;;;;1.00;0.60;;;;;;;;;;6215638;23;20404;-87
2021/08/18 10:20:33;;;;;;;0.80;0.60;;;18.90;99.90;;;;;;6215437;23;20406;-87
2021/08/18 10:23:02;;;;;;;0.70;0.53;;;18.80;99.90;;;;;;6206605;23;20392;-87
2021/08/18 10:25:45;;;;;;;0.93;0.70;;;19.50;99.90;;;;;;6209008;23;20431;-88
2021/08/18 10:28:13;;;;;;;0.70;0.60;;;19.30;99.90;;;;;;6212072;23;20395;-87
2021/08/18 10:30:48;;;;;;;0.83;0.80;;;19.40;99.90;;;;;;6209176;23;20395;-88
2021/08/18 10:33:52;;;;;;;0.60;0.57;;;19.10;99.90;;;;;;6215463;23;20399;-89
2021/08/18 10:37:01;;;;;;;0.60;0.43;;;18.50;99.90;;;;;;6171839;23;20473;-88
2021/08/18 10:39:29;;;;;;;1.47;0.70;;;;;;;;;;6209246;23;20399;-88
2021/08/18 10:42:03;;;;;;;1.30;0.60;;;18.30;99.90;;;;;;6215611;23;20490;-87
2021/08/18 10:44:37;;;;;;;0.73;0.50;;;18.30;99.90;;;;;;6215633;23;20387;-88
2021/08/18 10:47:18;;;;;;;3.27;1.00;;;18.30;99.90;;;;;;6215448;23;20443;-88
2021/08/18 10:49:46;;;;;;;1.33;0.90;;;18.50;99.90;;;;;;6215166;23;20868;-88
2021/08/18 10:52:51;;;;;;;0.70;0.70;;;18.80;99.90;;;;;;6215125;23;20886;-88
2021/08/18 10:55:28;;;;;;;1.60;1.00;;;18.70;99.90;;;;;;6214051;23;20719;-89
2021/08/18 10:57:55;;;;;;;0.77;0.77;;;;;;;;;;6215458;23;20395;-87
2021/08/18 11:00:24;;;;;;;0.83;0.70;;;19.10;99.90;;;;;;6215649;23;20395;-89
2021/08/18 11:03:00;;;;;;;1.10;0.80;;;18.70;99.90;;;;;;6215123;23;20403;-88
2021/08/18 11:05:29;;;;;;;0.63;0.50;;;18.60;99.90;;;;;;6215379;23;20783;-88
2021/08/18 11:08:01;;;;;;;1.47;0.70;;;18.50;99.90;;;;;;6215107;23;20398;-88
2021/08/18 11:10:28;;;;;;;2.67;0.63;;;;;;;;;;6213313;23;20435;-88
2021/08/18 11:12:56;;;;;;;1.30;0.70;;;;;;;;;;6215463;23;20387;-89
2021/08/18 11:15:55;;;;;;;0.80;0.73;;;18.00;99.90;;;;;;6215575;23;20872;-89
2021/08/18 11:18:23;;;;;;;4.30;0.90;;;18.30;99.90;;;;;;6215351;23;20391;-88
2021/08/18 11:20:53;;;;;;;1.10;0.90;;;18.60;99.90;;;;;;6215228;23;20394;-87
2021/08/18 11:23:29;;;;;;;0.83;0.80;;;18.50;99.90;;;;;;6216109;23;20396;-87
2021/08/18 11:26:01;;;;;;;0.70;0.60;;;18.90;99.90;;;;;;6210726;23;20450;-88
2021/08/18 11:28:31;;;;;;;1.03;1.00;;;19.80;99.90;;;;;;6216889;23;20890;-88
2021/08/18 11:31:01;;;;;;;1.23;0.97;;;20.60;99.90;;;;;;6212801;23;20418;-88
2021/08/18 11:33:29;;;;;;;1.70;1.13;;;20.90;99.90;;;;;;6211363;23;20426;-88
2021/08/18 11:35:56;;;;;;;1.23;1.03;;;;;;;;;;6216704;23;20962;-88
2021/08/18 11:38:24;;;;;;;1.03;0.80;;;;;;;;;;6216740;23;20392;-88
2021/08/18 11:40:52;;;;;;;1.00;0.70;;;19.90;99.90;;;;;;6210018;23;20470;-88
2021/08/18 11:43:19;;;;;;;0.90;0.70;;;;;;;;;;6207805;23;20735;-88
2021/08/18 11:45:51;;;;;;;0.97;0.80;;;19.40;99.90;;;;;;6216384;23;20446;-88
2021/08/18 11:48:22;;;;;;;0.80;0.80;;;19.20;99.90;;;;;;6216665;23;20391;-88
2021/08/18 11:50:53;;;;;;;1.10;1.00;;;19.20;99.90;;;;;;6216705;23;20392;-89
2021/08/18 11:53:21;;;;;;;1.10;0.80;;;;;;;;;;6210090;23;20934;-87
2021/08/18 11:55:48;;;;;;;5.00;1.00;;;;;;;;;;6210716;23;20404;-88
2021/08/18 11:58:15;;;;;;;1.90;0.80;;;;;;;;;;6216691;23;20403;-88
2021/08/18 12:00:42;;;;;;;1.37;0.90;;;;;;;;;;6216604;23;20396;-87
2021/08/18 12:03:10;;;;;;;1.73;1.20;;;;;;;;;;6216545;23;20396;-88
2021/08/18 12:05:38;;;;;;;1.73;0.77;;;19.00;99.90;;;;;;6216475;23;20395;-88
2021/08/18 12:08:11;;;;;;;1.33;0.70;;;18.90;99.90;;;;;;6211510;23;20918;-88
2021/08/18 12:10:39;;;;;;;2.00;0.83;;;18.80;99.90;;;;;;6214671;23;20439;-87
2021/08/18 12:13:07;;;;;;;0.80;0.60;;;18.80;99.90;;;;;;6216179;23;20894;-87
2021/08/18 12:15:41;;;;;;;0.50;0.40;;;19.10;99.90;;;;;;6216020;23;20403;-88
2021/08/18 12:18:27;;;;;;;0.87;0.53;;;19.90;99.90;;;;;;6215826;23;20399;-87
2021/08/18 12:21:15;;;;;;;1.03;0.70;;;20.40;99.90;;;;;;6216388;23;20408;-88
2021/08/18 12:23:45;;;;;;;1.57;0.60;;;;;;;;;;6215299;23;20696;-88
2021/08/18 12:26:29;;;;;;;1.00;0.70;;;20.60;99.90;;;;;;6215888;23;20732;-88
2021/08/18 12:28:57;;;;;;;0.80;0.60;;;20.60;99.90;;;;;;6216073;23;20744;-87
2021/08/18 12:31:24;;;;;;;2.10;0.60;;;20.80;99.90;;;;;;6216407;23;20403;-87
2021/08/18 12:34:07;;;;;;;0.90;0.63;;;21.80;99.90;;;;;;6215790;23;20388;-87
2021/08/18 12:36:36;;;;;;;0.70;0.40;;;22.70;99.90;;;;;;6216331;23;20391;-87
2021/08/18 12:39:04;;;;;;;0.90;0.50;;;21.80;99.90;;;;;;6208055;23;20514;-88
2021/08/18 12:41:34;;;;;;;0.90;0.60;;;21.30;99.90;;;;;;6216292;23;20523;-88
2021/08/18 12:44:08;;;;;;;0.70;0.50;;;21.00;99.90;;;;;;6216585;23;20419;-88
2021/08/18 12:46:36;;;;;;;0.50;0.50;;;;;;;;;;6216185;23;20445;-89
2021/08/18 12:49:25;;;;;;;0.60;0.60;;;20.40;99.90;;;;;;6216117;23;20396;-88
2021/08/18 12:51:54;;;;;;;0.70;0.63;;;20.20;99.90;;;;;;6216379;23;20450;-89
2021/08/18 12:54:21;;;;;;;2.67;0.70;;;;;;;;;;6214590;23;20772;-89
2021/08/18 12:56:48;;;;;;;0.90;0.70;;;;;;;;;;6216492;23;20410;-89
2021/08/18 12:59:15;;;;;;;0.70;0.50;;;;;;;;;;6217497;23;20396;-88
2021/08/18 13:01:43;;;;;;;1.10;0.60;;;;;;;;;;6216642;23;20391;-87
2021/08/18 13:04:10;;;;;;;0.60;0.60;;;;;;;;;;6211705;23;20395;-88
2021/08/18 13:06:37;;;;;;;0.50;0.40;;;;;;;;;;6215549;23;20432;-88
2021/08/18 13:09:05;;;;;;;0.60;0.50;;;19.50;99.90;;;;;;6213849;23;20422;-88
2021/08/18 13:11:33;;;;;;;0.87;0.80;;;19.90;99.90;;;;;;6209061;23;20952;-88
2021/08/18 13:14:00;;;;;;;0.80;0.53;;;;;;;;;;6210873;23;20498;-87
2021/08/18 13:16:27;;;;;;;2.00;0.83;;;;;;;;;;6215272;23;20403;-88
2021/08/18 13:18:54;;;;;;;1.00;0.67;;;;;;;;;;6215290;23;20895;-88
2021/08/18 13:21:21;;;;;;;0.90;0.80;;;;;;;;;;6210676;23;20458;-87
2021/08/18 13:23:49;;;;;;;0.80;0.60;;;;;;;;;;6214326;23;20483;-88
2021/08/18 13:26:17;;;;;;;0.97;0.70;;;19.80;99.90;;;;;;6215500;23;20471;-87
2021/08/18 13:28:44;;;;;;;1.33;0.70;;;;;;;;;;6215130;23;20400;-88
2021/08/18 13:31:11;;;;;;;1.90;0.90;;;;;;;;;;6215435;23;20705;-87
2021/08/18 13:33:38;;;;;;;1.00;0.80;;;;;;;;;;6215159;23;20407;-88
2021/08/18 13:36:06;;;;;;;1.10;0.90;;;;;;;;;;6215566;23;20684;-88
2021/08/18 13:38:34;;;;;;;2.50;0.83;;;;;;;;;;6215148;23;20398;-89
2021/08/18 13:41:02;;;;;;;0.70;0.70;;;;;;;;;;6208697;23;20462;-88
2021/08/18 13:43:30;;;;;;;0.97;0.80;;;19.40;99.90;;;;;;6215342;23;20395;-87
2021/08/18 13:45:58;;;;;;;2.40;0.83;;;;;;;;;;6214649;23;20396;-87
2021/08/18 13:48:25;;;;;;;2.00;1.03;;;19.20;99.90;;;;;;6215051;23;20446;-88
2021/08/18 13:50:53;;;;;;;0.97;0.87;;;;;;;;;;6210626;23;20395;-88
2021/08/18 13:53:20;;;;;;;0.80;0.80;;;;;;;;;;6210527;23;20795;-87
2021/08/18 13:55:47;;;;;;;1.83;0.80;;;;;;;;;;6213856;23;20503;-87
2021/08/18 13:58:15;;;;;;;0.97;0.80;;;;;;;;;;6215228;23;20415;-86